Grande Portogallo — IBZW — position and weather

sailwx.info

Track history (hours):
 
Tides and Currents Weather Stations Pressure Air Temp Water Temp Dewpoint Dewpoint Depression Visibility Wind Speed Wind Dir Waves Ship Positions

Grande Portogallo

Last reported at 2015-Aug-03 18:33 UTC. Time now 2015-Aug-03 19:10 UTC.
Position N 36°51' W 009°34'.

Length 176 m; draft 8.3 m.

Type: Cargo ship. MMSI: 247065500.

Date/timePositionNaut miles runAvg speedWind from/ knotsBaromVisibWave heightAir tempDewpointWater temp
2015-Aug-03 18:33N 36°51' W 009°34'1616.0
2015-Aug-03 17:33N 37°06' W 009°40'1616.0
2015-Aug-03 16:33N 37°22' W 009°44'1616.1
2015-Aug-03 15:33N 37°38' W 009°49'1716.5
2015-Aug-03 14:33N 37°54' W 009°53'1616.7
2015-Aug-03 13:33N 38°10' W 009°57'1716.6
2015-Aug-03 12:33N 38°26' W 010°02'1616.2
2015-Aug-03 11:33N 38°42' W 010°06'1616.1
2015-Aug-03 10:33N 38°58' W 010°08'1616.4
2015-Aug-03 09:33N 39°14' W 010°08'1615.8
2015-Aug-03 08:33N 39°30' W 010°08'  
2015-Aug-01 04:21N 50°07' W 002°11'1417.2
2015-Aug-01 03:34N 50°10' W 001°50'2618.4
2015-Aug-01 02:10N 50°17' W 001°12'1118.4
2015-Aug-01 01:33N 50°21' W 000°55'3316.3
2015-Jul-31 23:33N 50°29' W 000°05'1414.4
2015-Jul-31 22:34N 50°34' E 000°16'1313.4
2015-Jul-31 21:33N 50°39' E 000°36'1413.6
2015-Jul-31 20:33N 50°46' E 000°53'1515.4
2015-Jul-31 19:33N 50°56' E 001°12'1817.6
2015-Jul-31 18:33N 51°08' E 001°34'1616.5
2015-Jul-31 17:33N 51°21' E 001°50'1514.9
2015-Jul-31 16:33N 51°33' E 002°04'10014.2
2015-Jul-31 09:32N 52°50' E 003°46'1515.8
2015-Jul-31 08:33N 53°01' E 004°04'1515.2
2015-Jul-31 07:33N 53°10' E 004°24'1514.6
2015-Jul-31 06:33N 53°24' E 004°35'1312.9
2015-Jul-31 05:34N 53°31' E 004°52'1313.0
2015-Jul-31 04:34N 53°36' E 005°12'1413.6
2015-Jul-31 03:33N 53°40' E 005°34'1514.6
2015-Jul-31 02:34N 53°44' E 005°57'1915.0
2015-Jul-31 01:17N 53°50' E 006°29'2514.6
2015-Jul-30 23:33N 53°57' E 007°10'1313.7
2015-Jul-30 22:34N 53°60' E 007°32'1312.7
2015-Jul-30 21:34N 54°01' E 007°54'1212.2
2015-Jul-30 20:33N 54°00' E 008°15'1111.3
2015-Jul-30 19:33N 53°58' E 008°33'1413.8
2015-Jul-30 18:33N 53°50' E 008°53'1515.4
2015-Jul-30 17:33N 53°51' E 009°19'1616.1
2015-Jul-30 16:32N 53°37' E 009°33'1313.0
2015-Jul-30 15:33N 53°33' E 009°53'4 3.8
2015-Jul-30 14:32N 53°32' E 009°60'0 0.0
2015-Jul-30 13:32N 53°32' E 009°60'0 0.0
2015-Jul-30 12:26N 53°32' E 009°60'0 0.0
2015-Jul-30 11:32N 53°32' E 009°60'0 0.0
2015-Jul-30 10:32N 53°32' E 009°60'0 0.0
2015-Jul-30 09:32N 53°32' E 009°60'0 0.0
2015-Jul-30 08:32N 53°32' E 009°60'0 0.0
2015-Jul-30 07:32N 53°32' E 009°60'0 0.0
2015-Jul-30 06:32N 53°32' E 009°60'0 0.0
2015-Jul-30 05:32N 53°32' E 009°60'0 0.0
2015-Jul-30 04:32N 53°32' E 009°60'0 0.0
2015-Jul-30 03:32N 53°32' E 009°60'0 0.0
2015-Jul-30 02:32N 53°32' E 009°60'0 0.0
2015-Jul-30 01:32N 53°32' E 009°60'0 0.0
2015-Jul-30 00:26N 53°32' E 009°60'0 0.0
2015-Jul-29 23:32N 53°32' E 009°60'2 2.0
2015-Jul-29 22:34N 53°33' E 009°57'1010.0
2015-Jul-29 21:33N 53°34' E 009°40'1212.0
2015-Jul-29 20:33N 53°44' E 009°27'1413.7
2015-Jul-29 19:33N 53°53' E 009°10'1414.4
2015-Jul-29 18:34N 53°51' E 008°46'1514.8
2015-Jul-29 17:34N 53°59' E 008°25'1413.6
2015-Jul-29 16:33N 53°58' E 008°02'1616.0
2015-Jul-29 15:33N 53°55' E 007°35'1615.6
2015-Jul-29 14:33N 53°51' E 007°10'3715.1
2015-Jul-29 12:07N 53°42' E 006°09'915.2
2015-Jul-29 11:33N 53°39' E 005°56'1515.1
2015-Jul-29 10:33N 53°35' E 005°31'1515.0
2015-Jul-29 09:33N 53°30' E 005°07'1515.0
2015-Jul-29 08:33N 53°24' E 004°44'1714.8
2015-Jul-29 07:26N 53°09' E 004°31'1714.7
2015-Jul-29 06:16N 52°54' E 004°17'1614.8
2015-Jul-29 05:13N 52°42' E 004°02'1015.2
2015-Jul-29 04:32N 52°34' E 003°50'3215.6
2015-Jul-29 02:28N 52°05' E 003°26'1516.0
2015-Jul-29 01:33N 51°51' E 003°19'1212.5
2015-Jul-29 00:33N 51°39' E 003°20'1414.3
2015-Jul-28 23:33N 51°27' E 003°33'8 7.5
2015-Jul-28 22:33N 51°23' E 003°43'1110.8
2015-Jul-28 21:33N 51°26' E 003°60'1110.5
2015-Jul-28 20:34N 51°21' E 004°15'6 5.7
2015-Jul-28 19:33N 51°16' E 004°17'1 1.4
2015-Jul-28 18:33N 51°16' E 004°15'1 1.3
2015-Jul-28 17:31N 51°16' E 004°13'0 0.0
2015-Jul-28 16:31N 51°16' E 004°13'0 0.0
2015-Jul-28 15:31N 51°16' E 004°13'0 0.0
2015-Jul-28 14:31N 51°16' E 004°13'0 0.0
2015-Jul-28 13:31N 51°16' E 004°13'0 0.0
2015-Jul-28 12:31N 51°16' E 004°13'0 0.0
2015-Jul-28 11:31N 51°16' E 004°13'0 0.0
2015-Jul-28 10:31N 51°16' E 004°13'0 0.0
2015-Jul-28 09:28N 51°16' E 004°13'0 0.0
2015-Jul-28 08:31N 51°16' E 004°13'0 0.0
2015-Jul-28 07:31N 51°16' E 004°13'0 0.0
2015-Jul-28 06:31N 51°16' E 004°13'0 0.0
2015-Jul-28 05:31N 51°16' E 004°13'0 0.0
2015-Jul-28 04:33N 51°16' E 004°13'3 2.5
2015-Jul-28 03:33N 51°16' E 004°17'2 2.1
2015-Jul-28 02:33N 51°18' E 004°19'9 8.6
2015-Jul-28 01:33N 51°22' E 004°07'8 7.5
2015-Jul-28 00:33N 51°22' E 003°55'1110.5
2015-Jul-27 23:34N 51°26' E 003°40'10 9.5
2015-Jul-27 22:33N 51°24' E 003°25'1111.1
2015-Jul-27 21:33N 51°24' E 003°07'2 2.0
2015-Jul-27 20:33N 51°24' E 003°10'6 6.3
2015-Jul-27 19:33N 51°24' E 003°20'7 6.8
2015-Jul-27 18:33N 51°25' E 003°31'7 6.6
2015-Jul-27 17:32N 51°28' E 003°41'0 0.0
2015-Jul-27 16:29N 51°28' E 003°41'0 0.0
2015-Jul-27 15:32N 51°28' E 003°41'0 0.0
2015-Jul-27 14:29N 51°28' E 003°41'0 0.0
2015-Jul-27 13:32N 51°28' E 003°41'0 0.0
2015-Jul-27 12:29N 51°28' E 003°41'0 0.0
2015-Jul-27 11:32N 51°28' E 003°41'0 0.0
2015-Jul-27 10:29N 51°28' E 003°41'0 0.0
2015-Jul-27 09:32N 51°28' E 003°41'0 0.0
2015-Jul-27 08:32N 51°28' E 003°41'0 0.0
2015-Jul-27 07:32N 51°28' E 003°41'0 0.0
2015-Jul-27 06:32N 51°28' E 003°41'0 0.0
2015-Jul-27 05:32N 51°28' E 003°41'0 0.0
2015-Jul-27 04:32N 51°28' E 003°41'0 0.0
2015-Jul-27 03:32N 51°28' E 003°41'0 0.0
2015-Jul-27 02:32N 51°28' E 003°41'0 0.0
2015-Jul-27 01:32N 51°28' E 003°41'0 0.0
2015-Jul-27 00:29N 51°28' E 003°41'0 0.0
2015-Jul-26 23:32N 51°28' E 003°41'0 0.0
2015-Jul-26 22:32N 51°28' E 003°41'0 0.0
2015-Jul-26 21:32N 51°28' E 003°41'0 0.0
2015-Jul-26 20:32N 51°28' E 003°41'0 0.0
2015-Jul-26 19:32N 51°28' E 003°41'0 0.0
2015-Jul-26 18:33N 51°28' E 003°41'4 4.0
2015-Jul-26 17:33N 51°26' E 003°35'1414.4
2015-Jul-26 16:33N 51°24' E 003°12'1413.7
2015-Jul-26 15:33N 51°22' E 002°51'12 9.0
2015-Jul-26 14:16N 51°22' E 002°32'6 8.7
2015-Jul-26 13:33N 51°20' E 002°23'1211.8
2015-Jul-26 12:33N 51°14' E 002°07'1514.7
2015-Jul-26 11:34N 51°06' E 001°47'1515.5
2015-Jul-26 10:34N 50°54' E 001°31'3015.0
2015-Jul-26 08:33N 50°31' E 001°01'  
Track history (hours):
 
Tides and Currents Weather Stations Pressure Air Temp Water Temp Dewpoint Dewpoint Depression Visibility Wind Speed Wind Dir Waves Ship Positions

Grande Portogallo

Last reported at 2015-Aug-03 18:33 UTC. Time now 2015-Aug-03 19:10 UTC.
Position N 36°51' W 009°34'.

Length 176 m; draft 8.3 m.

Type: Cargo ship. MMSI: 247065500.

Date/timePositionNaut miles runAvg speedWind from/ knotsBaromVisibWave heightAir tempDewpointWater temp
2015-Aug-03 18:33N 36°51' W 009°34'1616.0
2015-Aug-03 17:33N 37°06' W 009°40'1616.0
2015-Aug-03 16:33N 37°22' W 009°44'1616.1
2015-Aug-03 15:33N 37°38' W 009°49'1716.5
2015-Aug-03 14:33N 37°54' W 009°53'1616.7
2015-Aug-03 13:33N 38°10' W 009°57'1716.6
2015-Aug-03 12:33N 38°26' W 010°02'1616.2
2015-Aug-03 11:33N 38°42' W 010°06'1616.1
2015-Aug-03 10:33N 38°58' W 010°08'1616.4
2015-Aug-03 09:33N 39°14' W 010°08'1615.8
2015-Aug-03 08:33N 39°30' W 010°08'  
2015-Aug-01 04:21N 50°07' W 002°11'1417.2
2015-Aug-01 03:34N 50°10' W 001°50'2618.4
2015-Aug-01 02:10N 50°17' W 001°12'1118.4
2015-Aug-01 01:33N 50°21' W 000°55'3316.3
2015-Jul-31 23:33N 50°29' W 000°05'1414.4
2015-Jul-31 22:34N 50°34' E 000°16'1313.4
2015-Jul-31 21:33N 50°39' E 000°36'1413.6
2015-Jul-31 20:33N 50°46' E 000°53'1515.4
2015-Jul-31 19:33N 50°56' E 001°12'1817.6
2015-Jul-31 18:33N 51°08' E 001°34'1616.5
2015-Jul-31 17:33N 51°21' E 001°50'1514.9
2015-Jul-31 16:33N 51°33' E 002°04'10014.2
2015-Jul-31 09:32N 52°50' E 003°46'1515.8
2015-Jul-31 08:33N 53°01' E 004°04'1515.2
2015-Jul-31 07:33N 53°10' E 004°24'1514.6
2015-Jul-31 06:33N 53°24' E 004°35'1312.9
2015-Jul-31 05:34N 53°31' E 004°52'1313.0
2015-Jul-31 04:34N 53°36' E 005°12'1413.6
2015-Jul-31 03:33N 53°40' E 005°34'1514.6
2015-Jul-31 02:34N 53°44' E 005°57'1915.0
2015-Jul-31 01:17N 53°50' E 006°29'2514.6
2015-Jul-30 23:33N 53°57' E 007°10'1313.7
2015-Jul-30 22:34N 53°60' E 007°32'1312.7
2015-Jul-30 21:34N 54°01' E 007°54'1212.2
2015-Jul-30 20:33N 54°00' E 008°15'1111.3
2015-Jul-30 19:33N 53°58' E 008°33'1413.8
2015-Jul-30 18:33N 53°50' E 008°53'1515.4
2015-Jul-30 17:33N 53°51' E 009°19'1616.1
2015-Jul-30 16:32N 53°37' E 009°33'1313.0
2015-Jul-30 15:33N 53°33' E 009°53'4 3.8
2015-Jul-30 14:32N 53°32' E 009°60'0 0.0
2015-Jul-30 13:32N 53°32' E 009°60'0 0.0
2015-Jul-30 12:26N 53°32' E 009°60'0 0.0
2015-Jul-30 11:32N 53°32' E 009°60'0 0.0
2015-Jul-30 10:32N 53°32' E 009°60'0 0.0
2015-Jul-30 09:32N 53°32' E 009°60'0 0.0
2015-Jul-30 08:32N 53°32' E 009°60'0 0.0
2015-Jul-30 07:32N 53°32' E 009°60'0 0.0
2015-Jul-30 06:32N 53°32' E 009°60'0 0.0
2015-Jul-30 05:32N 53°32' E 009°60'0 0.0
2015-Jul-30 04:32N 53°32' E 009°60'0 0.0
2015-Jul-30 03:32N 53°32' E 009°60'0 0.0
2015-Jul-30 02:32N 53°32' E 009°60'0 0.0
2015-Jul-30 01:32N 53°32' E 009°60'0 0.0
2015-Jul-30 00:26N 53°32' E 009°60'0 0.0
2015-Jul-29 23:32N 53°32' E 009°60'2 2.0
2015-Jul-29 22:34N 53°33' E 009°57'1010.0
2015-Jul-29 21:33N 53°34' E 009°40'1212.0
2015-Jul-29 20:33N 53°44' E 009°27'1413.7
2015-Jul-29 19:33N 53°53' E 009°10'1414.4
2015-Jul-29 18:34N 53°51' E 008°46'1514.8
2015-Jul-29 17:34N 53°59' E 008°25'1413.6
2015-Jul-29 16:33N 53°58' E 008°02'1616.0
2015-Jul-29 15:33N 53°55' E 007°35'1615.6
2015-Jul-29 14:33N 53°51' E 007°10'3715.1
2015-Jul-29 12:07N 53°42' E 006°09'915.2
2015-Jul-29 11:33N 53°39' E 005°56'1515.1
2015-Jul-29 10:33N 53°35' E 005°31'1515.0
2015-Jul-29 09:33N 53°30' E 005°07'1515.0
2015-Jul-29 08:33N 53°24' E 004°44'1714.8
2015-Jul-29 07:26N 53°09' E 004°31'1714.7
2015-Jul-29 06:16N 52°54' E 004°17'1614.8
2015-Jul-29 05:13N 52°42' E 004°02'1015.2
2015-Jul-29 04:32N 52°34' E 003°50'3215.6
2015-Jul-29 02:28N 52°05' E 003°26'1516.0
2015-Jul-29 01:33N 51°51' E 003°19'1212.5
2015-Jul-29 00:33N 51°39' E 003°20'1414.3
2015-Jul-28 23:33N 51°27' E 003°33'8 7.5
2015-Jul-28 22:33N 51°23' E 003°43'1110.8
2015-Jul-28 21:33N 51°26' E 003°60'1110.5
2015-Jul-28 20:34N 51°21' E 004°15'6 5.7
2015-Jul-28 19:33N 51°16' E 004°17'1 1.4
2015-Jul-28 18:33N 51°16' E 004°15'1 1.3
2015-Jul-28 17:31N 51°16' E 004°13'0 0.0
2015-Jul-28 16:31N 51°16' E 004°13'0 0.0
2015-Jul-28 15:31N 51°16' E 004°13'0 0.0
2015-Jul-28 14:31N 51°16' E 004°13'0 0.0
2015-Jul-28 13:31N 51°16' E 004°13'0 0.0
2015-Jul-28 12:31N 51°16' E 004°13'0 0.0
2015-Jul-28 11:31N 51°16' E 004°13'0 0.0
2015-Jul-28 10:31N 51°16' E 004°13'0 0.0
2015-Jul-28 09:28N 51°16' E 004°13'0 0.0
2015-Jul-28 08:31N 51°16' E 004°13'0 0.0
2015-Jul-28 07:31N 51°16' E 004°13'0 0.0
2015-Jul-28 06:31N 51°16' E 004°13'0 0.0
2015-Jul-28 05:31N 51°16' E 004°13'0 0.0
2015-Jul-28 04:33N 51°16' E 004°13'3 2.5
2015-Jul-28 03:33N 51°16' E 004°17'2 2.1
2015-Jul-28 02:33N 51°18' E 004°19'9 8.6
2015-Jul-28 01:33N 51°22' E 004°07'8 7.5
2015-Jul-28 00:33N 51°22' E 003°55'1110.5
2015-Jul-27 23:34N 51°26' E 003°40'10 9.5
2015-Jul-27 22:33N 51°24' E 003°25'1111.1
2015-Jul-27 21:33N 51°24' E 003°07'2 2.0
2015-Jul-27 20:33N 51°24' E 003°10'6 6.3
2015-Jul-27 19:33N 51°24' E 003°20'7 6.8
2015-Jul-27 18:33N 51°25' E 003°31'7 6.6
2015-Jul-27 17:32N 51°28' E 003°41'0 0.0
2015-Jul-27 16:29N 51°28' E 003°41'0 0.0
2015-Jul-27 15:32N 51°28' E 003°41'0 0.0
2015-Jul-27 14:29N 51°28' E 003°41'0 0.0
2015-Jul-27 13:32N 51°28' E 003°41'0 0.0
2015-Jul-27 12:29N 51°28' E 003°41'0 0.0
2015-Jul-27 11:32N 51°28' E 003°41'0 0.0
2015-Jul-27 10:29N 51°28' E 003°41'0 0.0
2015-Jul-27 09:32N 51°28' E 003°41'0 0.0
2015-Jul-27 08:32N 51°28' E 003°41'0 0.0
2015-Jul-27 07:32N 51°28' E 003°41'0 0.0
2015-Jul-27 06:32N 51°28' E 003°41'0 0.0
2015-Jul-27 05:32N 51°28' E 003°41'0 0.0
2015-Jul-27 04:32N 51°28' E 003°41'0 0.0
2015-Jul-27 03:32N 51°28' E 003°41'0 0.0
2015-Jul-27 02:32N 51°28' E 003°41'0 0.0
2015-Jul-27 01:32N 51°28' E 003°41'0 0.0
2015-Jul-27 00:29N 51°28' E 003°41'0 0.0
2015-Jul-26 23:32N 51°28' E 003°41'0 0.0
2015-Jul-26 22:32N 51°28' E 003°41'0 0.0
2015-Jul-26 21:32N 51°28' E 003°41'0 0.0
2015-Jul-26 20:32N 51°28' E 003°41'0 0.0
2015-Jul-26 19:32N 51°28' E 003°41'0 0.0
2015-Jul-26 18:33N 51°28' E 003°41'4 4.0
2015-Jul-26 17:33N 51°26' E 003°35'1414.4
2015-Jul-26 16:33N 51°24' E 003°12'1413.7
2015-Jul-26 15:33N 51°22' E 002°51'12 9.0
2015-Jul-26 14:16N 51°22' E 002°32'6 8.7
2015-Jul-26 13:33N 51°20' E 002°23'1211.8
2015-Jul-26 12:33N 51°14' E 002°07'1514.7
2015-Jul-26 11:34N 51°06' E 001°47'1515.5
2015-Jul-26 10:34N 50°54' E 001°31'3015.0
2015-Jul-26 08:33N 50°31' E 001°01'  

Dump ship's entire track history